Time;durP1;ratioP1;P1;durP2;ratioP2;P2;SDS_P1;SDS_P2;PMS_P1;PMS_P2;Temp;Humidity;BMP_temperature;BMP_pressure;BME280_temperature;BME280_humidity;BME280_pressure;Samples;Min_cycle;Max_cycle;Signal;HPM_P1;HPM_P2
2022/01/20 00:02:19;;;;;;;20.00;4.87;;;4.00;82.70;;;;;;5047537;28;20465;-54
2022/01/20 00:04:50;;;;;;;24.23;3.57;;;3.90;88.60;;;;;;5050017;28;20466;-55
2022/01/20 00:07:32;;;;;;;18.90;4.30;;;3.90;96.90;;;;;;5045045;28;20490;-55
2022/01/20 00:26:45;;;;;;;14.07;4.03;;;3.80;99.90;;;;;;4986122;28;20551;-55
2022/01/20 00:29:21;;;;;;;12.67;3.30;;;3.90;97.30;;;;;;5028121;28;20577;-54
2022/01/20 00:32:03;;;;;;;8.30;2.93;;;3.90;86.60;;;;;;5050514;28;20465;-55
2022/01/20 00:34:52;;;;;;;11.80;3.50;;;3.80;68.40;;;;;;5050978;28;20460;-55
2022/01/20 00:37:18;;;;;;;18.40;4.50;;;3.80;47.80;;;;;;5048978;28;20454;-55
2022/01/20 00:39:45;;;;;;;11.07;3.73;;;3.70;45.20;;;;;;5052897;28;20499;-55
2022/01/20 00:42:12;;;;;;;14.50;3.83;;;3.70;23.30;;;;;;5050484;28;20556;-55
2022/01/20 00:44:39;;;;;;;12.60;3.43;;;3.60;99.90;;;;;;5050286;28;21039;-55
2022/01/20 00:47:06;;;;;;;16.00;3.77;;;3.60;99.90;;;;;;5050476;28;20552;-55
2022/01/20 00:49:33;;;;;;;12.57;3.87;;;3.60;99.90;;;;;;5046474;28;20572;-55
2022/01/20 00:52:00;;;;;;;17.27;3.87;;;3.60;99.90;;;;;;5053260;28;20549;-55
2022/01/20 00:54:27;;;;;;;12.93;3.83;;;3.60;99.90;;;;;;5054625;28;20469;-55
2022/01/20 00:56:54;;;;;;;14.30;3.43;;;3.60;99.90;;;;;;5052240;28;20540;-55
2022/01/20 00:59:20;;;;;;;8.77;3.07;;;3.60;99.90;;;;;;5051732;28;20557;-55
2022/01/20 01:01:48;;;;;;;16.10;3.83;;;3.50;99.90;;;;;;5050214;28;20541;-56
2022/01/20 01:04:15;;;;;;;12.83;3.80;;;3.50;99.90;;;;;;5050153;28;20561;-55
2022/01/20 01:06:59;;;;;;;12.50;3.17;;;3.50;99.90;;;;;;5048287;28;20553;-55
2022/01/20 01:09:26;;;;;;;10.90;3.20;;;3.50;80.40;;;;;;5048610;28;20481;-55
2022/01/20 01:11:58;;;;;;;9.23;3.10;;;3.50;63.40;;;;;;5051567;28;20486;-55
2022/01/20 01:14:24;;;;;;;10.23;3.50;;;3.60;89.80;;;;;;5050396;28;20515;-55
2022/01/20 01:22:24;;;;;;;11.67;3.10;;;3.50;99.90;;;;;;5051435;28;20449;-56
2022/01/20 01:24:52;;;;;;;13.80;4.07;;;3.50;91.30;;;;;;5049165;28;20497;-55
2022/01/20 01:27:21;;;;;;;14.97;3.40;;;3.50;71.80;;;;;;5048967;28;20549;-54
2022/01/20 01:30:04;;;;;;;12.83;3.20;;;3.50;71.80;;;;;;5051194;28;20489;-56
2022/01/20 01:32:42;;;;;;;16.00;3.37;;;3.50;62.80;;;;;;5047761;28;20464;-56
2022/01/20 01:35:11;;;;;;;17.93;4.33;;;3.40;56.00;;;;;;5049081;28;20472;-56
2022/01/20 01:38:24;;;;;;;19.00;3.10;;;3.30;46.10;;;;;;5049667;28;20477;-56
2022/01/20 01:40:28;;;;;;;14.43;3.87;;;3.20;33.20;;;;;;5051234;28;20469;-54
2022/01/20 01:42:55;;;;;;;15.20;3.20;;;3.10;41.80;;;;;;5047101;28;20556;-55
2022/01/20 01:45:28;;;;;;;13.30;4.20;;;3.10;61.80;;;;;;5049089;28;20520;-54
2022/01/20 01:47:56;;;;;;;12.80;3.10;;;3.10;99.90;;;;;;5048616;28;20890;-55
2022/01/20 01:50:24;;;;;;;14.67;3.90;;;3.10;99.90;;;;;;5057537;28;20582;-55
2022/01/20 01:52:51;;;;;;;9.70;3.87;;;3.00;99.90;;;;;;5049126;28;20566;-56
2022/01/20 01:55:18;;;;;;;10.50;3.83;;;3.00;99.90;;;;;;5051784;28;20541;-55
2022/01/20 01:57:45;;;;;;;11.30;3.10;;;3.00;99.90;;;;;;5048973;28;20545;-55
2022/01/20 02:00:13;;;;;;;11.13;3.60;;;3.00;99.90;;;;;;5049344;28;20539;-55
2022/01/20 02:02:42;;;;;;;12.70;3.93;;;3.00;99.90;;;;;;5048617;28;21019;-55
2022/01/20 02:05:12;;;;;;;10.30;3.03;;;3.00;99.90;;;;;;5050805;28;20469;-54
2022/01/20 02:18:45;;;;;;;12.80;6.43;;;2.90;99.90;;;;;;5036885;28;20468;-55
2022/01/20 02:21:12;;;;;;;10.97;3.30;;;2.80;99.90;;;;;;5048741;28;20457;-55
2022/01/20 02:23:40;;;;;;;12.80;3.40;;;2.80;99.90;;;;;;5040009;28;20914;-55
2022/01/20 02:26:06;;;;;;;21.87;4.47;;;2.80;99.90;;;;;;5045137;28;20582;-54
2022/01/20 02:28:33;;;;;;;11.00;3.17;;;2.80;99.90;;;;;;5046068;28;20577;-54
2022/01/20 02:31:00;;;;;;;13.97;3.90;;;2.80;99.90;;;;;;5040969;28;20528;-54
2022/01/20 02:33:29;;;;;;;15.63;4.70;;;2.80;99.90;;;;;;5047069;28;20556;-55
2022/01/20 02:35:58;;;;;;;10.20;3.70;;;2.80;99.90;;;;;;5046270;28;20457;-55
2022/01/20 02:38:33;;;;;;;12.33;3.37;;;2.70;99.90;;;;;;5045843;28;20950;-54
2022/01/20 02:46:29;;;;;;;9.40;3.40;;;2.60;99.90;;;;;;5046767;28;20452;-55
2022/01/20 02:48:56;;;;;;;20.87;3.87;;;2.50;99.90;;;;;;5049026;28;20541;-55
2022/01/20 02:51:22;;;;;;;13.10;4.33;;;2.50;99.90;;;;;;5050591;28;20544;-55
2022/01/20 02:53:50;;;;;;;9.00;3.00;;;2.40;99.90;;;;;;5046415;28;21025;-55
2022/01/20 02:56:17;;;;;;;7.53;2.90;;;2.50;99.90;;;;;;5050115;28;20463;-54
2022/01/20 02:58:43;;;;;;;12.60;3.80;;;2.50;99.90;;;;;;5048186;28;20545;-55
2022/01/20 03:01:10;;;;;;;17.17;3.00;;;2.50;99.90;;;;;;5044084;28;20542;-55
2022/01/20 03:03:36;;;;;;;8.83;2.80;;;2.50;99.90;;;;;;5046219;28;20493;-55
2022/01/20 03:06:04;;;;;;;7.33;2.60;;;2.50;99.90;;;;;;5045453;28;20466;-55
2022/01/20 03:08:31;;;;;;;7.60;3.13;;;2.60;99.90;;;;;;5050199;28;20556;-55
2022/01/20 03:10:58;;;;;;;9.27;2.73;;;2.70;99.90;;;;;;5049384;28;21177;-55
2022/01/20 03:13:25;;;;;;;16.63;3.70;;;2.70;99.90;;;;;;5037726;28;20554;-55
2022/01/20 03:15:52;;;;;;;9.73;3.13;;;2.80;99.90;;;;;;5047866;28;20541;-56
2022/01/20 03:18:19;;;;;;;14.10;2.97;;;2.80;99.90;;;;;;5050161;28;20462;-55
2022/01/20 03:20:46;;;;;;;9.73;3.03;;;2.80;99.90;;;;;;5047376;28;20552;-55
2022/01/20 03:23:12;;;;;;;13.97;3.53;;;2.80;99.90;;;;;;5048611;28;20462;-55
2022/01/20 03:25:39;;;;;;;12.03;3.43;;;2.90;99.90;;;;;;5048807;28;20482;-56
2022/01/20 03:28:07;;;;;;;10.00;3.27;;;2.90;99.90;;;;;;5047372;28;20917;-55
2022/01/20 03:30:34;;;;;;;15.73;3.40;;;2.80;99.90;;;;;;5049406;28;20573;-54
2022/01/20 03:33:01;;;;;;;7.83;2.63;;;2.40;34.50;;;;;;5048228;28;21148;-55
2022/01/20 03:35:27;;;;;;;12.60;3.50;;;2.30;99.90;;;;;;5051913;28;20485;-55
2022/01/20 03:37:54;;;;;;;9.00;2.63;;;2.00;99.90;;;;;;5048466;28;20859;-56
2022/01/20 03:40:23;;;;;;;7.33;2.10;;;1.70;99.90;;;;;;5047516;28;20561;-55
2022/01/20 03:42:49;;;;;;;7.20;2.37;;;1.50;73.90;;;;;;5049189;28;21510;-55
2022/01/20 03:45:18;;;;;;;7.07;2.00;;;1.40;30.20;;;;;;5048761;28;20541;-55
2022/01/20 03:47:44;;;;;;;6.70;2.13;;;1.30;23.30;;;;;;5046628;28;20519;-55
2022/01/20 03:50:59;;;;;;;6.63;1.90;;;1.20;99.90;;;;;;5048822;28;20569;-55
2022/01/20 03:52:58;;;;;;;5.70;2.00;;;1.20;99.90;;;;;;5046375;28;20458;-55
2022/01/20 03:55:24;;;;;;;6.03;1.70;;;1.20;99.90;;;;;;5046845;28;20561;-56
2022/01/20 03:57:52;;;;;;;4.17;1.77;;;1.20;99.90;;;;;;5049967;28;20477;-54
2022/01/20 04:00:20;;;;;;;3.07;1.53;;;1.10;99.90;;;;;;5051005;28;20556;-56
2022/01/20 04:02:46;;;;;;;2.03;1.23;;;1.10;99.90;;;;;;5051643;28;20557;-56
2022/01/20 04:05:13;;;;;;;2.10;1.00;;;0.90;99.90;;;;;;5051364;28;20561;-56
2022/01/20 04:07:39;;;;;;;3.90;1.33;;;0.80;99.90;;;;;;5052673;28;20560;-55
2022/01/20 04:10:07;;;;;;;0.80;0.80;;;0.80;99.90;;;;;;5052543;28;20585;-56
2022/01/20 04:12:34;;;;;;;1.30;0.90;;;0.70;99.90;;;;;;5053422;28;20493;-54
2022/01/20 04:15:07;;;;;;;1.97;1.07;;;0.60;99.90;;;;;;5052740;28;20485;-55
2022/01/20 04:17:35;;;;;;;2.10;1.20;;;0.50;99.90;;;;;;5045230;28;20462;-55
2022/01/20 04:20:04;;;;;;;1.10;1.10;;;0.60;99.90;;;;;;5051679;28;20564;-55
2022/01/20 04:22:30;;;;;;;0.70;0.70;;;0.60;99.90;;;;;;5053209;28;20485;-56
2022/01/20 04:24:57;;;;;;;1.73;0.77;;;0.60;99.90;;;;;;5054133;28;20546;-56
2022/01/20 04:27:23;;;;;;;0.90;0.80;;;0.60;99.90;;;;;;5053891;28;20500;-55
2022/01/20 04:29:50;;;;;;;1.90;0.80;;;0.70;99.90;;;;;;5050402;28;20568;-54
2022/01/20 04:32:16;;;;;;;0.93;0.93;;;0.70;99.90;;;;;;5051463;28;20494;-53
2022/01/20 04:34:44;;;;;;;2.07;1.27;;;0.70;99.90;;;;;;5049990;28;20548;-54
2022/01/20 04:37:12;;;;;;;3.60;1.50;;;0.70;99.90;;;;;;5049166;28;20462;-54
2022/01/20 04:39:45;;;;;;;2.50;1.53;;;0.70;99.90;;;;;;5053527;28;20483;-54
2022/01/20 04:42:11;;;;;;;7.30;2.40;;;0.70;99.90;;;;;;5051790;28;20462;-54
2022/01/20 04:44:39;;;;;;;5.33;2.03;;;0.70;85.00;;;;;;5051474;28;20507;-55
2022/01/20 04:47:17;;;;;;;5.53;2.50;;;0.70;77.60;;;;;;5052131;28;20539;-55
2022/01/20 04:57:57;;;;;;;8.70;2.67;;;0.70;85.00;;;;;;5047728;28;22453;-55
2022/01/20 05:00:24;;;;;;;8.90;2.87;;;0.80;99.90;;;;;;5050112;28;20532;-53
2022/01/20 05:02:51;;;;;;;10.53;2.87;;;0.80;99.90;;;;;;5047558;28;22337;-55
2022/01/20 05:05:18;;;;;;;12.20;2.70;;;0.80;99.90;;;;;;5052247;28;20457;-55
2022/01/20 05:07:45;;;;;;;10.03;2.83;;;0.80;99.90;;;;;;5050916;28;20486;-55
2022/01/20 05:10:13;;;;;;;4.37;2.10;;;0.80;99.90;;;;;;5056860;28;20480;-55
2022/01/20 05:13:02;;;;;;;5.33;1.97;;;0.80;99.90;;;;;;5055378;28;20553;-54
2022/01/20 05:15:27;;;;;;;5.90;2.50;;;0.80;99.90;;;;;;5044143;28;20458;-55
2022/01/20 05:17:55;;;;;;;5.97;2.43;;;0.80;99.90;;;;;;5047345;28;20536;-54
2022/01/20 05:20:23;;;;;;;11.40;3.03;;;0.80;99.90;;;;;;5048574;28;21285;-54
2022/01/20 05:22:50;;;;;;;10.30;2.30;;;0.90;99.90;;;;;;5050146;28;21002;-55
2022/01/20 05:25:16;;;;;;;8.83;1.83;;;0.80;99.90;;;;;;5048061;28;20911;-55
2022/01/20 05:27:43;;;;;;;8.23;2.40;;;0.80;99.90;;;;;;5049329;28;20482;-54
2022/01/20 05:30:12;;;;;;;9.13;2.30;;;0.80;99.90;;;;;;5047224;28;20688;-55
2022/01/20 05:32:38;;;;;;;3.40;2.10;;;0.80;99.90;;;;;;5049813;28;20529;-54
2022/01/20 05:35:05;;;;;;;7.53;2.57;;;0.80;99.90;;;;;;5047209;28;20496;-54
2022/01/20 05:37:33;;;;;;;5.57;1.90;;;0.90;94.70;;;;;;5043280;28;20540;-55
2022/01/20 05:40:00;;;;;;;10.20;2.77;;;0.90;95.40;;;;;;5047638;28;20568;-55
2022/01/20 05:42:27;;;;;;;3.63;1.90;;;0.90;84.80;;;;;;5048395;28;20458;-55
2022/01/20 05:44:53;;;;;;;7.27;2.70;;;0.90;68.60;;;;;;5048718;28;20458;-55
2022/01/20 05:47:26;;;;;;;7.30;2.50;;;0.90;61.10;;;;;;5047260;28;20481;-55
2022/01/20 05:49:53;;;;;;;5.20;2.40;;;0.90;52.90;;;;;;5048003;28;20477;-55
2022/01/20 05:52:20;;;;;;;9.33;2.40;;;0.90;47.40;;;;;;5046813;28;20560;-54
2022/01/20 05:54:48;;;;;;;14.00;2.60;;;0.90;47.50;;;;;;5047655;28;20893;-47
2022/01/20 05:57:14;;;;;;;9.30;2.93;;;0.90;42.70;;;;;;5045272;28;20494;-47
2022/01/20 05:59:41;;;;;;;6.77;2.70;;;0.90;39.60;;;;;;5047976;28;20509;-46
2022/01/20 06:02:13;;;;;;;7.80;2.90;;;0.90;64.70;;;;;;5048444;28;20516;-47
2022/01/20 06:04:40;;;;;;;7.77;1.93;;;0.90;99.90;;;;;;5048546;28;21042;-46
2022/01/20 06:07:06;;;;;;;11.10;2.30;;;0.80;99.90;;;;;;5047495;28;21038;-49
2022/01/20 06:09:33;;;;;;;5.07;2.40;;;0.80;99.90;;;;;;5048403;28;21089;-48
2022/01/20 06:12:01;;;;;;;7.00;1.90;;;0.70;99.90;;;;;;5043406;28;20560;-47
2022/01/20 06:14:28;;;;;;;9.43;2.23;;;0.70;79.60;;;;;;5050880;28;20560;-48
2022/01/20 06:16:55;;;;;;;5.83;2.40;;;0.70;99.90;;;;;;5045880;28;20561;-47
2022/01/20 06:19:22;;;;;;;4.43;1.70;;;0.70;92.80;;;;;;5048317;28;21157;-47
2022/01/20 06:21:48;;;;;;;4.23;1.60;;;0.60;99.90;;;;;;5047982;28;20537;-48
2022/01/20 06:24:15;;;;;;;9.57;2.07;;;0.50;99.90;;;;;;5048793;28;20462;-47
2022/01/20 06:26:42;;;;;;;7.67;1.77;;;0.50;99.90;;;;;;5048753;28;20542;-48
2022/01/20 06:29:10;;;;;;;6.53;2.27;;;0.40;99.90;;;;;;5045038;28;20497;-47
2022/01/20 06:31:36;;;;;;;7.20;2.50;;;0.40;99.90;;;;;;5050044;28;20513;-47
2022/01/20 06:34:03;;;;;;;4.40;1.63;;;0.40;99.90;;;;;;5045857;28;21009;-47
2022/01/20 06:36:30;;;;;;;6.17;1.83;;;0.40;99.90;;;;;;5047440;28;20560;-48
2022/01/20 06:38:56;;;;;;;7.47;1.83;;;0.40;94.90;;;;;;5050106;28;20694;-48
2022/01/20 06:41:23;;;;;;;4.80;2.03;;;0.50;99.90;;;;;;5051555;28;20882;-47
2022/01/20 06:43:49;;;;;;;5.27;2.40;;;0.50;99.90;;;;;;5043470;28;20473;-46
2022/01/20 06:46:17;;;;;;;4.20;1.80;;;0.50;99.90;;;;;;5045270;28;21984;-47
2022/01/20 06:48:44;;;;;;;12.30;2.03;;;0.10;99.90;;;;;;5044189;28;20457;-47
2022/01/20 06:51:10;;;;;;;4.50;2.20;;;-0.50;82.00;;;;;;5050099;28;20493;-47
2022/01/20 06:53:37;;;;;;;6.23;1.70;;;-0.60;66.50;;;;;;5051888;28;20454;-47
2022/01/20 06:56:04;;;;;;;4.40;3.00;;;-0.90;52.20;;;;;;5043135;28;20516;-47
2022/01/20 06:58:32;;;;;;;5.60;1.90;;;-0.80;99.90;;;;;;5048220;28;21178;-47
2022/01/20 07:00:59;;;;;;;2.83;1.60;;;-0.90;99.90;;;;;;5047944;28;20477;-48
2022/01/20 07:03:26;;;;;;;8.43;1.50;;;-1.00;99.90;;;;;;5045478;28;20536;-48
2022/01/20 07:05:53;;;;;;;3.30;1.40;;;-0.90;99.90;;;;;;5044784;28;20894;-48
2022/01/20 07:08:20;;;;;;;4.57;1.60;;;-0.90;99.90;;;;;;5045539;28;20469;-47
2022/01/20 07:10:47;;;;;;;1.47;0.93;;;-0.90;99.90;;;;;;5047283;28;20551;-47
2022/01/20 07:13:14;;;;;;;6.07;1.83;;;-0.90;99.90;;;;;;5046106;28;20987;-47
2022/01/20 07:15:40;;;;;;;2.43;1.57;;;-0.90;99.90;;;;;;5043498;28;20468;-48
2022/01/20 07:18:07;;;;;;;4.40;1.30;;;-1.00;99.90;;;;;;5045295;28;20454;-47
2022/01/20 07:20:35;;;;;;;2.63;1.57;;;-1.00;99.90;;;;;;5041695;28;20482;-46
2022/01/20 07:23:02;;;;;;;2.77;1.60;;;-1.00;99.90;;;;;;5046456;28;20470;-48
2022/01/20 07:25:28;;;;;;;5.50;1.77;;;-1.00;83.20;;;;;;5048300;28;20493;-46
2022/01/20 07:27:55;;;;;;;5.07;1.70;;;-1.00;59.00;;;;;;5046339;28;21048;-46
2022/01/20 07:30:22;;;;;;;3.13;1.60;;;-1.00;59.50;;;;;;5049795;28;20486;-56
2022/01/20 07:32:48;;;;;;;5.73;1.60;;;-0.90;56.40;;;;;;5052587;28;20992;-55
2022/01/20 07:35:15;;;;;;;3.97;2.07;;;-0.90;99.90;;;;;;5054940;28;20534;-55
2022/01/20 07:37:43;;;;;;;2.50;1.53;;;-0.90;99.90;;;;;;5049180;28;20540;-55
2022/01/20 07:40:11;;;;;;;3.43;1.50;;;-0.80;99.90;;;;;;5052446;28;20619;-56
2022/01/20 07:42:37;;;;;;;6.77;1.93;;;-0.80;99.90;;;;;;5049638;28;20493;-55
2022/01/20 07:45:05;;;;;;;3.43;1.97;;;-0.70;99.90;;;;;;5048030;28;20466;-56
2022/01/20 07:47:32;;;;;;;5.13;1.93;;;-0.70;99.90;;;;;;5051062;28;20458;-55
2022/01/20 07:49:58;;;;;;;10.70;2.50;;;-0.50;99.90;;;;;;5051786;28;20509;-55
2022/01/20 07:52:25;;;;;;;4.70;2.23;;;-0.40;99.90;;;;;;5050765;28;20570;-54
2022/01/20 07:54:53;;;;;;;4.30;2.20;;;-0.30;81.10;;;;;;5046994;28;20556;-55
2022/01/20 07:57:19;;;;;;;3.43;2.10;;;-0.20;80.60;;;;;;5049980;28;20950;-56
2022/01/20 07:59:46;;;;;;;3.97;2.03;;;-0.20;41.50;;;;;;5047821;28;20600;-55
2022/01/20 08:02:12;;;;;;;10.90;2.17;;;-0.10;65.20;;;;;;5048451;28;20501;-55
2022/01/20 08:04:39;;;;;;;11.53;2.20;;;0.00;80.60;;;;;;5053001;28;20454;-55
2022/01/20 08:07:06;;;;;;;4.77;2.00;;;0.20;99.90;;;;;;5053751;28;20445;-55
2022/01/20 08:09:32;;;;;;;8.00;2.87;;;0.20;99.90;;;;;;5047431;28;20477;-55
2022/01/20 08:12:00;;;;;;;5.10;2.40;;;0.30;99.90;;;;;;5055960;28;20474;-54
2022/01/20 08:14:28;;;;;;;11.23;2.83;;;0.30;99.90;;;;;;5054116;28;20457;-55
2022/01/20 08:16:54;;;;;;;6.83;3.53;;;0.30;99.90;;;;;;5049480;28;20832;-55
2022/01/20 08:19:21;;;;;;;16.10;3.20;;;0.40;99.90;;;;;;5049814;28;20512;-55
2022/01/20 08:21:47;;;;;;;11.47;3.10;;;0.40;99.90;;;;;;5049902;28;20557;-55
2022/01/20 08:24:14;;;;;;;14.73;2.90;;;0.40;99.90;;;;;;5053005;28;20450;-56
2022/01/20 08:26:41;;;;;;;5.80;2.77;;;0.50;99.90;;;;;;5051230;28;22445;-55
2022/01/20 08:29:09;;;;;;;7.60;2.90;;;0.50;99.90;;;;;;5051833;28;20489;-55
2022/01/20 08:31:35;;;;;;;5.60;2.70;;;0.40;99.90;;;;;;5044123;28;20568;-59
2022/01/20 08:34:02;;;;;;;9.73;3.40;;;0.70;99.90;;;;;;5048955;28;20465;-55
2022/01/20 08:36:28;;;;;;;9.10;3.37;;;1.00;99.90;;;;;;5048040;28;20527;-55
2022/01/20 08:38:55;;;;;;;7.63;2.73;;;1.00;99.90;;;;;;5049393;28;20497;-55
2022/01/20 08:41:22;;;;;;;7.97;2.70;;;1.30;99.90;;;;;;5048284;28;20546;-56
2022/01/20 08:43:48;;;;;;;12.40;3.10;;;1.30;99.90;;;;;;5046837;28;20552;-54
2022/01/20 08:46:20;;;;;;;9.33;3.50;;;1.40;99.90;;;;;;5049876;28;20462;-55
2022/01/20 08:48:46;;;;;;;8.87;3.30;;;1.30;99.90;;;;;;5050045;28;20461;-55
2022/01/20 08:51:13;;;;;;;10.90;3.30;;;1.10;99.90;;;;;;5049635;28;20965;-55
2022/01/20 08:53:39;;;;;;;7.00;3.30;;;1.40;99.90;;;;;;5053360;28;20525;-54
2022/01/20 08:56:06;;;;;;;10.63;3.00;;;1.60;99.90;;;;;;5053720;28;20503;-55
2022/01/20 08:58:33;;;;;;;7.50;3.50;;;1.50;99.90;;;;;;5052998;28;20478;-56
2022/01/20 09:01:00;;;;;;;31.40;3.63;;;1.70;88.40;;;;;;5052965;28;21033;-56
2022/01/20 09:03:28;;;;;;;10.87;3.20;;;1.70;27.80;;;;;;5052250;28;20449;-56
2022/01/20 09:05:55;;;;;;;12.27;4.00;;;1.50;99.90;;;;;;5052546;28;20504;-55
2022/01/20 09:08:22;;;;;;;9.47;3.43;;;1.50;99.90;;;;;;5051861;28;20908;-54
2022/01/20 09:10:54;;;;;;;7.67;3.30;;;1.30;99.90;;;;;;5053619;28;20550;-56
2022/01/20 09:16:05;;;;;;;5.60;2.40;;;1.20;99.90;;;;;;5052831;28;20481;-56
2022/01/20 09:18:33;;;;;;;9.27;3.03;;;1.10;99.90;;;;;;5055356;28;20483;-57
2022/01/20 09:20:59;;;;;;;6.53;2.70;;;1.20;99.90;;;;;;5050838;28;20469;-56
2022/01/20 09:23:26;;;;;;;11.40;3.73;;;1.10;99.90;;;;;;5053764;28;20495;-56
2022/01/20 09:25:53;;;;;;;8.87;2.77;;;1.10;99.90;;;;;;5043839;28;20537;-56
2022/01/20 09:28:19;;;;;;;10.13;3.17;;;1.00;99.90;;;;;;5052674;28;20534;-56
2022/01/20 09:30:46;;;;;;;13.80;3.53;;;1.10;99.90;;;;;;5051873;28;20477;-55
2022/01/20 09:33:17;;;;;;;12.23;3.90;;;1.10;99.90;;;;;;5052635;28;20852;-56
2022/01/20 09:35:46;;;;;;;11.93;3.30;;;1.10;99.90;;;;;;5051439;28;20457;-57
2022/01/20 09:38:13;;;;;;;16.30;3.80;;;1.20;99.90;;;;;;5044262;28;20533;-56
2022/01/20 09:40:40;;;;;;;14.53;4.07;;;1.30;99.90;;;;;;5047643;28;20462;-56
2022/01/20 09:43:10;;;;;;;16.37;3.33;;;1.40;99.90;;;;;;5036562;28;20511;-56
2022/01/20 09:45:38;;;;;;;15.37;3.10;;;1.40;99.90;;;;;;5051926;28;20536;-55
2022/01/20 09:48:06;;;;;;;8.50;3.30;;;1.40;99.90;;;;;;5056582;28;20533;-55
2022/01/20 09:50:33;;;;;;;12.00;3.57;;;1.40;99.90;;;;;;5045979;28;20913;-56
2022/01/20 09:53:02;;;;;;;14.57;4.03;;;1.30;99.90;;;;;;5051214;28;20571;-55
2022/01/20 09:55:30;;;;;;;10.30;3.97;;;1.40;99.90;;;;;;5052171;28;20541;-56
2022/01/20 09:57:57;;;;;;;17.80;3.93;;;1.50;99.90;;;;;;5052319;28;20457;-55
2022/01/20 10:00:23;;;;;;;10.63;3.80;;;1.60;99.90;;;;;;5051764;28;20498;-56
2022/01/20 10:02:52;;;;;;;9.50;3.77;;;1.70;90.00;;;;;;5051907;28;20978;-56
2022/01/20 10:05:31;;;;;;;14.57;3.97;;;1.70;99.90;;;;;;5050362;28;20557;-55
2022/01/20 10:08:05;;;;;;;14.27;3.70;;;1.60;99.90;;;;;;5051286;28;20453;-55
2022/01/20 10:10:40;;;;;;;8.33;3.30;;;1.50;99.90;;;;;;5048895;28;20511;-55
2022/01/20 10:13:09;;;;;;;19.87;3.90;;;1.60;99.90;;;;;;5051634;28;20488;-55
2022/01/20 10:15:36;;;;;;;13.50;4.50;;;1.60;99.90;;;;;;5044210;28;20482;-57
2022/01/20 10:18:08;;;;;;;10.70;3.20;;;1.70;99.90;;;;;;5051929;28;20529;-56
2022/01/20 10:20:35;;;;;;;14.47;4.50;;;2.90;54.30;;;;;;5051448;28;20552;-56
2022/01/20 10:23:03;;;;;;;11.17;3.77;;;2.90;57.90;;;;;;5051577;28;20533;-55
2022/01/20 10:25:34;;;;;;;13.23;3.43;;;3.10;69.00;;;;;;5051368;28;20872;-55
2022/01/20 10:28:01;;;;;;;8.10;3.10;;;3.10;74.30;;;;;;5046638;28;20475;-56
2022/01/20 10:30:30;;;;;;;10.83;3.53;;;2.70;59.10;;;;;;5043181;28;21120;-55
2022/01/20 10:32:58;;;;;;;13.93;3.67;;;2.40;47.30;;;;;;5046486;28;20517;-55
2022/01/20 10:35:27;;;;;;;16.63;4.40;;;2.60;39.30;;;;;;5050056;28;20511;-55
2022/01/20 10:38:00;;;;;;;8.07;3.70;;;2.60;53.50;;;;;;5048801;28;20438;-54
2022/01/20 10:40:28;;;;;;;8.27;3.63;;;2.70;66.10;;;;;;5043885;28;20564;-56
2022/01/20 10:42:55;;;;;;;10.30;3.80;;;2.90;55.10;;;;;;5046300;28;20541;-54
2022/01/20 10:45:23;;;;;;;12.87;3.00;;;3.20;77.20;;;;;;5049732;28;20522;-55
2022/01/20 10:47:52;;;;;;;11.90;4.40;;;3.30;70.00;;;;;;5048607;28;20881;-54
2022/01/20 10:50:23;;;;;;;10.90;3.63;;;2.90;68.80;;;;;;5046412;28;20572;-55
2022/01/20 10:52:52;;;;;;;11.43;3.63;;;3.10;68.70;;;;;;5043601;28;20514;-56
2022/01/20 10:55:21;;;;;;;17.73;5.07;;;3.00;71.40;;;;;;5048364;28;20812;-56
2022/01/20 10:57:51;;;;;;;15.60;4.60;;;3.20;75.10;;;;;;5044911;28;20453;-56
2022/01/20 11:00:19;;;;;;;18.50;3.67;;;3.30;71.10;;;;;;5048066;28;20564;-56
2022/01/20 11:02:50;;;;;;;7.77;4.13;;;3.10;81.50;;;;;;5044536;28;20519;-56
2022/01/20 11:05:17;;;;;;;16.53;3.07;;;3.20;64.20;;;;;;5046823;28;20472;-54
2022/01/20 11:07:44;;;;;;;10.60;3.60;;;2.90;57.60;;;;;;5048357;28;20485;-56
2022/01/20 11:10:12;;;;;;;10.60;3.07;;;3.30;74.70;;;;;;5050682;28;20473;-55
2022/01/20 11:12:39;;;;;;;13.97;3.97;;;3.50;84.70;;;;;;5051207;28;20473;-55
2022/01/20 11:15:10;;;;;;;9.30;3.30;;;3.70;93.40;;;;;;5042908;28;20565;-56
2022/01/20 11:17:40;;;;;;;9.97;3.50;;;3.30;70.70;;;;;;5046284;28;20466;-55
2022/01/20 11:20:09;;;;;;;12.50;3.77;;;3.20;58.20;;;;;;5046615;28;20487;-54
2022/01/20 11:22:36;;;;;;;18.67;3.90;;;3.30;64.00;;;;;;5055435;28;20466;-54
2022/01/20 11:25:06;;;;;;;11.10;3.13;;;3.30;85.10;;;;;;5045718;28;20495;-55
2022/01/20 11:27:38;;;;;;;10.90;3.07;;;3.40;77.70;;;;;;5045809;28;20540;-54
2022/01/20 11:30:17;;;;;;;7.70;3.47;;;3.40;85.10;;;;;;5043975;28;21061;-55
2022/01/20 11:32:46;;;;;;;14.37;2.90;;;3.50;76.10;;;;;;5045890;28;20478;-56
2022/01/20 11:35:16;;;;;;;9.70;3.73;;;3.60;72.70;;;;;;5047302;28;20465;-53
2022/01/20 11:37:54;;;;;;;7.40;3.73;;;3.40;77.60;;;;;;5044596;28;20469;-55
2022/01/20 11:40:24;;;;;;;10.53;3.30;;;3.50;93.80;;;;;;5044696;28;20624;-55
2022/01/20 11:42:58;;;;;;;9.07;3.20;;;4.50;96.00;;;;;;5041927;28;20465;-55
2022/01/20 11:45:31;;;;;;;15.23;4.80;;;4.10;99.90;;;;;;5044240;28;20469;-55
2022/01/20 11:47:59;;;;;;;5.80;2.67;;;4.00;99.90;;;;;;5046189;28;20459;-55
2022/01/20 11:50:25;;;;;;;14.47;3.90;;;3.40;99.90;;;;;;5044582;28;20485;-55
2022/01/20 11:52:52;;;;;;;12.67;3.40;;;3.30;96.20;;;;;;5047510;28;21061;-56
2022/01/20 11:55:19;;;;;;;12.93;3.40;;;3.60;93.60;;;;;;5045227;22;20585;-51
2022/01/20 11:57:46;;;;;;;6.77;3.07;;;3.60;97.00;;;;;;5026343;28;20490;-50
2022/01/20 12:00:24;;;;;;;19.03;4.27;;;3.50;91.40;;;;;;5024650;28;20517;-52
2022/01/20 12:02:53;;;;;;;9.97;3.23;;;3.40;89.20;;;;;;5028026;28;21010;-51
2022/01/20 12:05:26;;;;;;;13.17;4.10;;;3.40;74.40;;;;;;5023834;28;20920;-51
2022/01/20 12:07:53;;;;;;;7.33;3.07;;;3.40;95.20;;;;;;5020788;28;20974;-51
2022/01/20 12:10:27;;;;;;;9.67;3.10;;;3.50;99.30;;;;;;5028200;28;20613;-52
2022/01/20 12:13:05;;;;;;;17.30;3.30;;;3.20;90.50;;;;;;5027496;28;20477;-50
2022/01/20 12:15:32;;;;;;;7.23;3.07;;;3.50;84.90;;;;;;5027031;28;20565;-51
2022/01/20 12:18:00;;;;;;;7.00;3.47;;;3.40;89.80;;;;;;5030908;28;20446;-50
2022/01/20 12:20:27;;;;;;;10.13;3.10;;;3.50;91.00;;;;;;5027914;28;20499;-51
2022/01/20 12:22:55;;;;;;;5.87;2.30;;;5.00;99.90;;;;;;5031840;28;20520;-51
2022/01/20 12:25:24;;;;;;;10.80;2.67;;;5.00;99.90;;;;;;5029868;28;20480;-51
2022/01/20 12:27:51;;;;;;;17.03;2.57;;;6.00;99.90;;;;;;5029818;28;20462;-50
2022/01/20 12:30:22;;;;;;;9.53;2.80;;;5.90;99.90;;;;;;5028549;28;20509;-50
2022/01/20 12:32:57;;;;;;;5.67;2.67;;;6.00;99.90;;;;;;5029825;28;20482;-51
2022/01/20 12:35:25;;;;;;;16.03;2.77;;;6.60;99.90;;;;;;5029421;28;20540;-52
2022/01/20 12:37:52;;;;;;;10.60;3.30;;;6.40;99.90;;;;;;5029840;28;21259;-50
2022/01/20 12:40:20;;;;;;;11.03;3.03;;;5.40;99.90;;;;;;5027899;28;20467;-51
2022/01/20 12:42:48;;;;;;;13.90;2.70;;;4.30;99.90;;;;;;5024815;28;20912;-51
2022/01/20 12:48:14;;;;;;;7.20;3.07;;;3.70;99.90;;;;;;5029146;28;20446;-51
2022/01/20 12:50:52;;;;;;;11.47;3.40;;;3.90;99.90;;;;;;5025282;28;20534;-51
2022/01/20 12:53:20;;;;;;;7.80;3.27;;;3.60;99.90;;;;;;5026689;28;20490;-51
2022/01/20 12:55:53;;;;;;;6.40;2.20;;;3.70;99.90;;;;;;5031725;28;20503;-51
2022/01/20 12:58:20;;;;;;;11.67;2.37;;;4.00;99.90;;;;;;5033948;28;20898;-51
2022/01/20 13:00:58;;;;;;;10.20;3.10;;;4.00;99.90;;;;;;5027140;28;20998;-52
2022/01/20 13:03:34;;;;;;;10.83;2.73;;;4.20;99.90;;;;;;5025842;28;20466;-51
2022/01/20 13:06:03;;;;;;;12.27;3.27;;;3.70;99.90;;;;;;5031422;28;20462;-52
2022/01/20 13:08:33;;;;;;;14.57;4.23;;;3.60;99.90;;;;;;5029278;28;20485;-52
2022/01/20 13:11:05;;;;;;;7.50;3.00;;;4.00;99.90;;;;;;5027008;28;20469;-51
2022/01/20 13:13:32;;;;;;;14.20;3.30;;;3.60;99.90;;;;;;5031013;28;20514;-50
2022/01/20 13:16:09;;;;;;;5.73;3.10;;;3.10;99.90;;;;;;5029551;28;20549;-51
2022/01/20 13:18:36;;;;;;;6.27;2.63;;;3.20;99.90;;;;;;5026251;28;20668;-51
2022/01/20 13:21:07;;;;;;;9.60;2.97;;;2.90;99.90;;;;;;5025296;28;20467;-51
2022/01/20 13:23:55;;;;;;;12.47;3.33;;;2.80;88.30;;;;;;5030107;28;20454;-51
2022/01/20 13:26:23;;;;;;;11.33;3.90;;;2.80;89.40;;;;;;5025754;28;20469;-52
2022/01/20 13:28:58;;;;;;;10.03;3.17;;;2.60;65.90;;;;;;5023794;28;20478;-51
2022/01/20 13:31:25;;;;;;;9.30;3.33;;;2.50;71.00;;;;;;5027741;28;20528;-51
2022/01/20 13:33:52;;;;;;;8.87;3.70;;;2.40;81.90;;;;;;5037263;28;21043;-51
2022/01/20 13:36:22;;;;;;;10.77;2.83;;;2.40;68.50;;;;;;5029167;28;20808;-51
2022/01/20 13:38:59;;;;;;;4.50;2.90;;;2.40;79.20;;;;;;5024499;28;20489;-51
2022/01/20 13:41:29;;;;;;;7.13;3.50;;;2.40;76.10;;;;;;5032022;28;20978;-51
2022/01/20 13:46:43;;;;;;;11.20;3.10;;;2.90;99.90;;;;;;5024505;28;20442;-51
2022/01/20 13:49:12;;;;;;;9.47;3.00;;;2.70;93.20;;;;;;5027696;28;20461;-52
2022/01/20 13:51:40;;;;;;;10.73;3.47;;;2.40;80.10;;;;;;5027832;28;20498;-51
2022/01/20 13:54:07;;;;;;;12.87;4.60;;;2.30;84.90;;;;;;5028852;28;20541;-51